Time;durP1;ratioP1;P1;durP2;ratioP2;P2;SDS_P1;SDS_P2;PMS_P1;PMS_P2;Temp;Humidity;BMP_temperature;BMP_pressure;BME280_temperature;BME280_humidity;BME280_pressure;Samples;Min_cycle;Max_cycle;Signal;HPM_P1;HPM_P2
2022/04/12 00:02:02;;;;;;;7.50;6.90;;;9.70;99.80;;;;;;10404400;28;20199;-81
2022/04/12 00:07:06;;;;;;;6.57;5.83;;;9.70;99.50;;;;;;10420895;28;20222;-81
2022/04/12 00:12:09;;;;;;;7.83;7.03;;;9.70;99.70;;;;;;10403612;28;20257;-82
2022/04/12 00:22:31;;;;;;;8.00;7.20;;;9.60;99.90;;;;;;10418516;28;20586;-79
2022/04/12 00:27:34;;;;;;;9.03;6.80;;;9.50;99.90;;;;;;10416661;28;20565;-80
2022/04/12 00:32:36;;;;;;;6.77;6.07;;;9.50;99.90;;;;;;10420273;28;20689;-79
2022/04/12 00:37:40;;;;;;;7.23;6.50;;;9.50;99.80;;;;;;10397053;28;20244;-79
2022/04/12 00:42:42;;;;;;;7.40;6.40;;;9.50;99.10;;;;;;10418355;28;20194;-82
2022/04/12 00:47:45;;;;;;;7.83;7.23;;;9.30;99.90;;;;;;10386943;28;20217;-82
2022/04/12 00:52:52;;;;;;;7.07;6.47;;;9.30;99.70;;;;;;10402891;28;20662;-82
2022/04/12 00:57:54;;;;;;;7.93;7.23;;;9.30;99.70;;;;;;10411957;28;20228;-81
2022/04/12 01:02:56;;;;;;;7.17;6.57;;;9.20;99.90;;;;;;10396451;28;20210;-81
2022/04/12 01:08:00;;;;;;;7.00;6.30;;;9.20;99.90;;;;;;10384135;28;20712;-81
2022/04/12 01:13:02;;;;;;;7.20;6.60;;;9.20;99.90;;;;;;10401847;28;20218;-81
2022/04/12 01:18:05;;;;;;;6.80;6.30;;;9.20;99.80;;;;;;10386476;28;20308;-81
2022/04/12 01:23:12;;;;;;;7.50;6.80;;;9.10;99.90;;;;;;10396942;28;20205;-81
2022/04/12 01:28:15;;;;;;;7.70;7.10;;;9.10;99.90;;;;;;10385251;28;20230;-82
2022/04/12 01:33:17;;;;;;;7.77;7.07;;;9.10;99.90;;;;;;10403901;28;20194;-82
2022/04/12 01:38:20;;;;;;;7.87;6.50;;;9.00;99.90;;;;;;10401311;28;20242;-81
2022/04/12 01:43:23;;;;;;;6.50;6.00;;;9.00;99.90;;;;;;10383760;28;20202;-80
2022/04/12 01:48:26;;;;;;;7.30;5.97;;;9.00;99.90;;;;;;10416534;28;20217;-80
2022/04/12 01:53:28;;;;;;;6.67;5.97;;;9.00;99.90;;;;;;10399138;28;20194;-80
2022/04/12 01:58:32;;;;;;;7.57;6.37;;;9.00;99.90;;;;;;10397804;28;20702;-80
2022/04/12 02:03:34;;;;;;;7.80;7.03;;;8.90;99.90;;;;;;10417506;28;20202;-80
2022/04/12 02:08:38;;;;;;;8.40;6.83;;;8.90;99.90;;;;;;10401381;28;20232;-80
2022/04/12 02:13:42;;;;;;;5.90;5.50;;;8.80;99.90;;;;;;10392228;28;20646;-80
2022/04/12 02:18:44;;;;;;;7.43;6.33;;;8.80;99.80;;;;;;10397286;28;20636;-82
2022/04/12 02:23:46;;;;;;;7.00;6.40;;;8.80;99.90;;;;;;10397617;28;20233;-81
2022/04/12 02:28:49;;;;;;;6.83;6.13;;;8.70;99.90;;;;;;10415021;28;20618;-83
2022/04/12 02:33:52;;;;;;;7.70;6.17;;;8.70;99.90;;;;;;10381321;28;20719;-79
2022/04/12 02:38:54;;;;;;;7.57;6.20;;;8.60;99.90;;;;;;10396936;28;20252;-79
2022/04/12 02:43:57;;;;;;;7.50;6.30;;;8.60;99.90;;;;;;10409915;28;20205;-82
2022/04/12 02:48:59;;;;;;;7.33;6.73;;;8.70;99.90;;;;;;10395956;28;20214;-79
2022/04/12 02:54:01;;;;;;;7.00;6.47;;;8.60;99.90;;;;;;10414370;28;20206;-80
2022/04/12 02:59:05;;;;;;;6.90;6.30;;;8.60;99.90;;;;;;10415393;28;20201;-80
2022/04/12 03:04:07;;;;;;;7.33;6.63;;;8.50;99.90;;;;;;10415250;28;20197;-80
2022/04/12 03:09:09;;;;;;;6.80;6.20;;;8.50;99.90;;;;;;10414969;28;20218;-80
2022/04/12 03:14:13;;;;;;;11.20;7.00;;;8.40;99.90;;;;;;10397510;28;20281;-80
2022/04/12 03:19:15;;;;;;;7.53;6.83;;;8.30;99.90;;;;;;10396210;28;20209;-82
2022/04/12 03:24:17;;;;;;;7.07;6.37;;;8.30;99.90;;;;;;10401730;28;20197;-79
2022/04/12 03:29:21;;;;;;;7.93;7.13;;;8.30;99.90;;;;;;10436923;28;20272;-79
2022/04/12 03:34:23;;;;;;;7.40;6.80;;;8.30;99.90;;;;;;10387320;28;20241;-79
2022/04/12 03:39:25;;;;;;;7.40;6.80;;;8.30;99.90;;;;;;10391819;28;20229;-79
2022/04/12 03:44:29;;;;;;;7.33;6.73;;;8.30;99.90;;;;;;10391331;28;20662;-81
2022/04/12 03:49:31;;;;;;;7.93;7.23;;;8.30;99.90;;;;;;10404643;28;20567;-80
2022/04/12 03:54:33;;;;;;;9.17;8.27;;;8.30;99.90;;;;;;10445008;22;20320;-87
2022/04/12 03:59:36;;;;;;;7.53;6.93;;;8.30;99.90;;;;;;10372591;28;20206;-87
2022/04/12 04:04:39;;;;;;;7.83;7.20;;;8.30;99.90;;;;;;10360985;28;20253;-87
2022/04/12 04:09:41;;;;;;;8.63;7.90;;;8.30;99.90;;;;;;10344940;28;20790;-87
2022/04/12 04:14:44;;;;;;;8.30;7.47;;;8.30;99.90;;;;;;10374761;28;20242;-87
2022/04/12 04:19:47;;;;;;;8.43;7.63;;;8.30;99.90;;;;;;10344659;28;20191;-87
2022/04/12 04:24:49;;;;;;;7.63;7.03;;;8.20;99.90;;;;;;10360755;28;20214;-87
2022/04/12 04:29:52;;;;;;;8.73;7.93;;;8.10;99.90;;;;;;10344387;28;20218;-87
2022/04/12 04:34:55;;;;;;;8.70;7.90;;;8.10;99.90;;;;;;10345354;28;20268;-85
2022/04/12 04:39:57;;;;;;;8.70;7.90;;;8.10;99.90;;;;;;10367574;28;20201;-85
2022/04/12 04:45:00;;;;;;;8.47;7.80;;;8.10;99.90;;;;;;10346716;28;20361;-85
2022/04/12 04:50:03;;;;;;;38.60;26.77;;;8.10;99.90;;;;;;10381121;28;20265;-86
2022/04/12 04:55:06;;;;;;;11.73;10.10;;;8.10;99.90;;;;;;10343721;28;20229;-87
2022/04/12 05:00:15;;;;;;;9.47;8.67;;;8.00;99.90;;;;;;10343341;28;20187;-86
2022/04/12 05:05:18;;;;;;;9.27;8.40;;;8.00;99.90;;;;;;10338946;28;20372;-86
2022/04/12 05:10:21;;;;;;;8.00;7.30;;;8.00;99.90;;;;;;10340125;28;20214;-88
2022/04/12 05:15:27;;;;;;;9.10;8.20;;;8.00;99.90;;;;;;10376914;28;20218;-86
2022/04/12 05:20:29;;;;;;;8.30;7.47;;;7.90;99.90;;;;;;10341757;28;20269;-85
2022/04/12 05:25:31;;;;;;;8.23;7.53;;;7.90;99.90;;;;;;10379220;28;20218;-85
2022/04/12 05:30:35;;;;;;;8.03;7.33;;;8.00;99.90;;;;;;10340286;28;20202;-85
2022/04/12 05:35:37;;;;;;;13.73;11.17;;;8.10;99.90;;;;;;10341949;28;20226;-85
2022/04/12 05:40:39;;;;;;;11.37;9.53;;;8.20;99.90;;;;;;10344742;28;20613;-85
2022/04/12 05:45:42;;;;;;;10.60;8.30;;;8.20;99.90;;;;;;10344559;28;20742;-85
2022/04/12 05:50:45;;;;;;;11.57;9.30;;;8.30;99.90;;;;;;10346594;28;20329;-86
2022/04/12 05:55:47;;;;;;;12.20;10.90;;;8.40;99.90;;;;;;10363649;28;20929;-85
2022/04/12 06:00:50;;;;;;;9.97;8.97;;;8.40;99.90;;;;;;10342086;28;20195;-86
2022/04/12 06:05:53;;;;;;;10.50;8.97;;;8.50;99.90;;;;;;10338333;28;20228;-85
2022/04/12 06:10:55;;;;;;;9.13;8.37;;;8.60;99.90;;;;;;10336964;28;20577;-86
2022/04/12 06:15:59;;;;;;;9.90;8.97;;;8.80;99.90;;;;;;10361256;28;20226;-85
2022/04/12 06:21:01;;;;;;;9.43;8.63;;;8.90;99.90;;;;;;10340007;28;20249;-85
2022/04/12 06:26:03;;;;;;;9.57;8.67;;;9.00;99.90;;;;;;10337962;28;20222;-86
2022/04/12 06:31:07;;;;;;;11.60;10.50;;;9.10;99.90;;;;;;10367096;28;20787;-86
2022/04/12 06:36:09;;;;;;;9.83;8.93;;;9.30;99.90;;;;;;10351122;28;20218;-85
2022/04/12 06:41:12;;;;;;;12.00;8.87;;;9.40;99.90;;;;;;10351746;28;20195;-86
2022/04/12 06:46:15;;;;;;;9.87;9.00;;;9.60;99.90;;;;;;10361130;28;20222;-84
2022/04/12 06:51:18;;;;;;;10.03;9.13;;;9.70;99.90;;;;;;10351479;28;20210;-85
2022/04/12 06:56:20;;;;;;;11.70;10.63;;;9.80;99.90;;;;;;10335698;28;20230;-85
2022/04/12 07:01:23;;;;;;;11.33;10.20;;;10.00;99.90;;;;;;10344302;28;20199;-85
2022/04/12 07:06:25;;;;;;;11.80;10.80;;;10.10;99.90;;;;;;10346035;28;20598;-85
2022/04/12 07:11:28;;;;;;;10.97;9.87;;;10.30;99.90;;;;;;10344382;28;20241;-86
2022/04/12 07:16:31;;;;;;;10.63;9.73;;;10.40;99.90;;;;;;10348996;28;20638;-85
2022/04/12 07:21:33;;;;;;;10.83;9.17;;;10.60;99.90;;;;;;10352719;28;20671;-85
2022/04/12 07:26:36;;;;;;;11.37;10.40;;;10.80;99.90;;;;;;10338495;28;20317;-85
2022/04/12 07:31:40;;;;;;;9.10;8.30;;;10.90;99.90;;;;;;10371008;28;20207;-85
2022/04/12 07:36:47;;;;;;;10.33;9.53;;;11.10;99.90;;;;;;10337708;28;20219;-85
2022/04/12 07:41:49;;;;;;;9.23;8.43;;;11.30;99.90;;;;;;10337173;28;20198;-85
2022/04/12 07:46:53;;;;;;;8.80;8.10;;;11.50;99.90;;;;;;10337035;28;20226;-87
2022/04/12 07:51:55;;;;;;;8.53;7.83;;;11.60;99.90;;;;;;10351716;28;20194;-86
2022/04/12 07:56:57;;;;;;;8.80;8.10;;;11.70;99.90;;;;;;10340926;28;20234;-86
2022/04/12 08:02:01;;;;;;;8.67;7.60;;;11.90;99.90;;;;;;10334248;28;20261;-87
2022/04/12 08:07:03;;;;;;;8.53;7.83;;;12.20;99.90;;;;;;10352253;28;20233;-87
2022/04/12 08:12:05;;;;;;;7.90;7.30;;;12.40;99.90;;;;;;10344751;28;20667;-86
2022/04/12 08:17:09;;;;;;;6.23;5.73;;;12.70;99.90;;;;;;10337989;28;20211;-87
2022/04/12 08:22:12;;;;;;;7.20;6.50;;;13.00;99.90;;;;;;10342420;28;20575;-86
2022/04/12 08:27:14;;;;;;;7.83;7.07;;;13.20;99.90;;;;;;10339152;28;20222;-87
2022/04/12 08:32:18;;;;;;;13.40;7.30;;;13.50;99.90;;;;;;10337396;28;20738;-87
2022/04/12 08:37:21;;;;;;;6.97;6.43;;;13.80;99.90;;;;;;10330396;28;20222;-87
2022/04/12 08:42:23;;;;;;;6.93;6.23;;;13.90;99.90;;;;;;10333405;28;20210;-87
2022/04/12 08:47:28;;;;;;;7.30;6.63;;;14.10;99.90;;;;;;10336909;28;20305;-87
2022/04/12 08:52:30;;;;;;;7.00;6.40;;;14.20;99.90;;;;;;10348742;28;20234;-86
2022/04/12 08:57:32;;;;;;;6.30;5.80;;;14.40;99.90;;;;;;10355250;28;20226;-87
2022/04/12 09:02:36;;;;;;;7.20;6.60;;;14.60;99.90;;;;;;10339183;28;20203;-85
2022/04/12 09:07:46;;;;;;;6.90;6.23;;;14.90;99.90;;;;;;10352437;28;20226;-87
2022/04/12 09:12:48;;;;;;;6.67;5.93;;;15.20;99.90;;;;;;10340844;28;20203;-85
2022/04/12 09:17:54;;;;;;;8.20;6.57;;;15.50;99.80;;;;;;10376902;28;20233;-87
2022/04/12 09:23:01;;;;;;;7.30;6.60;;;15.60;99.70;;;;;;10346375;28;20297;-87
2022/04/12 09:28:03;;;;;;;6.73;6.13;;;15.60;99.70;;;;;;10357328;28;20772;-87
2022/04/12 09:33:07;;;;;;;6.30;5.70;;;15.80;99.60;;;;;;10343201;28;20260;-87
2022/04/12 09:38:11;;;;;;;8.60;6.00;;;16.00;99.20;;;;;;10349849;28;20218;-87
2022/04/12 09:43:13;;;;;;;5.40;4.90;;;16.30;96.90;;;;;;10362985;28;20254;-86
2022/04/12 09:48:17;;;;;;;4.17;3.83;;;16.60;96.60;;;;;;10357372;28;20280;-86
2022/04/12 09:53:19;;;;;;;5.27;4.63;;;17.00;96.00;;;;;;10350053;28;20203;-88
2022/04/12 09:58:22;;;;;;;6.07;4.97;;;17.30;96.40;;;;;;10400696;23;20233;-82
2022/04/12 10:03:27;;;;;;;4.93;4.53;;;17.50;94.80;;;;;;10423631;28;20198;-82
2022/04/12 10:08:31;;;;;;;5.60;4.37;;;17.80;91.20;;;;;;10420307;28;20663;-82
2022/04/12 10:13:34;;;;;;;3.23;3.00;;;18.00;92.40;;;;;;10401474;28;20229;-82
2022/04/12 10:18:41;;;;;;;3.67;3.37;;;17.90;92.20;;;;;;10384479;28;20693;-83
2022/04/12 10:23:46;;;;;;;4.47;3.70;;;17.80;93.50;;;;;;10400047;28;20241;-83
2022/04/12 10:28:52;;;;;;;3.70;3.40;;;17.60;90.90;;;;;;10398834;28;20240;-83
2022/04/12 10:34:16;;;;;;;3.53;3.30;;;17.50;91.20;;;;;;10402678;28;20200;-82
2022/04/12 10:39:26;;;;;;;4.60;4.17;;;17.40;91.20;;;;;;10402139;28;20745;-82
2022/04/12 10:44:40;;;;;;;3.60;3.40;;;17.30;87.10;;;;;;10401111;28;20204;-82
2022/04/12 10:50:01;;;;;;;3.87;3.43;;;17.50;81.80;;;;;;10401371;28;20222;-82
2022/04/12 10:55:06;;;;;;;4.10;3.70;;;17.70;79.50;;;;;;10386996;28;20219;-83
2022/04/12 11:00:11;;;;;;;3.03;2.83;;;17.80;75.30;;;;;;10410951;28;20283;-82
2022/04/12 11:05:56;;;;;;;3.67;3.37;;;17.90;76.70;;;;;;10395088;28;20903;-83
2022/04/12 11:11:11;;;;;;;3.40;3.10;;;17.90;82.20;;;;;;10380232;28;20675;-82
2022/04/12 11:16:17;;;;;;;3.30;2.90;;;17.80;82.30;;;;;;10373480;28;20226;-82
2022/04/12 11:21:22;;;;;;;5.20;3.10;;;17.80;83.20;;;;;;10408555;28;20201;-82
2022/04/12 11:26:40;;;;;;;3.00;2.80;;;17.90;76.20;;;;;;10407433;28;20226;-82
2022/04/12 11:31:43;;;;;;;2.97;2.77;;;18.20;76.40;;;;;;10367618;28;20661;-82
2022/04/12 11:36:50;;;;;;;2.83;2.63;;;18.60;74.30;;;;;;10387991;28;20231;-83
2022/04/12 11:41:58;;;;;;;3.13;2.80;;;18.90;75.00;;;;;;10399526;28;20771;-83
2022/04/12 11:47:02;;;;;;;3.67;3.37;;;19.10;72.00;;;;;;10380586;28;20633;-82
2022/04/12 11:52:06;;;;;;;2.97;2.77;;;19.20;72.60;;;;;;10416306;28;20198;-83
2022/04/12 11:57:11;;;;;;;2.37;2.27;;;19.20;77.50;;;;;;10419180;28;20296;-83
2022/04/12 12:02:16;;;;;;;7.90;3.13;;;19.20;79.90;;;;;;10428790;28;20206;-82
2022/04/12 12:07:20;;;;;;;10.93;3.60;;;19.20;84.20;;;;;;10406391;28;20217;-82
2022/04/12 12:12:32;;;;;;;2.30;2.10;;;19.00;84.70;;;;;;10401690;28;20202;-82
2022/04/12 12:17:34;;;;;;;2.40;2.30;;;18.90;83.40;;;;;;10404412;28;20236;-82
2022/04/12 12:22:37;;;;;;;2.80;2.37;;;19.00;84.00;;;;;;10406154;28;20202;-82
2022/04/12 12:27:41;;;;;;;4.20;2.80;;;19.00;85.80;;;;;;10400365;28;20293;-83
2022/04/12 12:32:44;;;;;;;2.33;2.23;;;19.00;85.30;;;;;;10418657;28;20693;-82
2022/04/12 12:37:47;;;;;;;4.40;2.33;;;19.00;81.80;;;;;;10406686;28;20214;-83
2022/04/12 12:42:53;;;;;;;2.70;2.50;;;19.10;87.60;;;;;;10418524;28;20201;-82
2022/04/12 12:47:57;;;;;;;2.63;2.50;;;19.10;79.10;;;;;;10413593;28;20210;-82
2022/04/12 12:53:00;;;;;;;2.07;1.97;;;19.30;85.10;;;;;;10413574;28;20259;-82
2022/04/12 12:58:06;;;;;;;2.77;2.57;;;19.20;82.10;;;;;;10424259;28;20245;-82
2022/04/12 13:03:10;;;;;;;3.47;1.90;;;19.30;80.20;;;;;;10419634;28;20717;-82
2022/04/12 13:08:13;;;;;;;3.90;2.83;;;19.30;80.00;;;;;;10417727;28;20216;-82
2022/04/12 13:13:16;;;;;;;2.53;2.20;;;19.50;78.30;;;;;;10420205;28;20269;-82
2022/04/12 13:18:20;;;;;;;2.70;2.30;;;19.70;73.50;;;;;;10388140;28;20236;-82
2022/04/12 13:23:22;;;;;;;2.30;2.13;;;19.80;78.40;;;;;;10403455;28;20260;-81
2022/04/12 13:28:26;;;;;;;2.60;2.40;;;19.80;73.50;;;;;;10420590;28;20285;-82
2022/04/12 13:33:28;;;;;;;3.10;2.50;;;19.90;76.00;;;;;;10400354;28;20220;-82
2022/04/12 13:38:30;;;;;;;2.90;2.13;;;19.70;81.40;;;;;;10399342;28;20225;-82
2022/04/12 13:43:34;;;;;;;2.00;1.90;;;19.60;78.80;;;;;;10418482;28;20202;-82
2022/04/12 13:48:36;;;;;;;2.03;1.90;;;19.60;74.00;;;;;;10420684;28;20222;-82
2022/04/12 13:53:38;;;;;;;2.60;2.10;;;19.70;79.30;;;;;;10403958;28;20190;-82
2022/04/12 13:58:42;;;;;;;3.90;1.80;;;19.60;80.40;;;;;;10420269;28;20218;-82
2022/04/12 14:03:44;;;;;;;2.77;2.57;;;19.60;73.50;;;;;;10422299;28;20288;-82
2022/04/12 14:08:46;;;;;;;2.10;2.00;;;19.60;79.00;;;;;;10418368;28;20657;-82
2022/04/12 14:13:50;;;;;;;2.30;1.90;;;19.60;77.70;;;;;;10412011;28;20237;-82
2022/04/12 14:18:52;;;;;;;2.53;2.17;;;19.60;76.10;;;;;;10409243;28;20214;-82
2022/04/12 14:23:54;;;;;;;2.33;2.13;;;19.60;72.90;;;;;;10404919;28;20256;-82
2022/04/12 14:28:58;;;;;;;2.50;2.30;;;19.70;75.80;;;;;;10406526;28;20252;-82
2022/04/12 14:34:03;;;;;;;1.83;1.73;;;19.90;67.00;;;;;;10399045;28;20206;-82
2022/04/12 14:39:05;;;;;;;2.00;1.90;;;20.10;76.20;;;;;;10393634;28;20225;-82
2022/04/12 14:44:09;;;;;;;2.07;1.83;;;20.00;73.20;;;;;;10390770;28;20197;-82
2022/04/12 14:49:11;;;;;;;2.10;2.00;;;20.30;66.80;;;;;;10392466;28;20279;-82
2022/04/12 14:54:14;;;;;;;2.43;1.87;;;20.40;66.20;;;;;;10394280;28;20204;-83
2022/04/12 14:59:18;;;;;;;2.03;1.93;;;20.50;74.60;;;;;;10411688;28;20222;-82
2022/04/12 15:04:21;;;;;;;1.97;1.87;;;20.40;67.90;;;;;;10377713;28;20212;-82
2022/04/12 15:09:24;;;;;;;2.20;2.00;;;20.30;74.40;;;;;;10401635;28;20241;-82
2022/04/12 15:14:29;;;;;;;2.00;1.90;;;20.10;72.90;;;;;;10408862;28;20202;-82
2022/04/12 15:19:34;;;;;;;1.90;1.80;;;20.00;75.90;;;;;;10387043;28;20218;-83
2022/04/12 15:24:36;;;;;;;2.30;2.10;;;19.90;74.50;;;;;;10388303;28;20230;-82
2022/04/12 15:29:39;;;;;;;2.70;1.90;;;19.80;76.50;;;;;;10405676;28;20221;-82
2022/04/12 15:34:42;;;;;;;3.20;2.93;;;19.60;80.80;;;;;;10391355;28;20736;-83
2022/04/12 15:39:44;;;;;;;1.90;1.80;;;19.30;83.30;;;;;;10422594;28;20229;-82
2022/04/12 15:44:48;;;;;;;5.67;2.43;;;19.00;81.80;;;;;;10421899;28;20297;-82
2022/04/12 15:49:50;;;;;;;3.17;1.93;;;18.90;78.80;;;;;;10413531;28;20598;-82
2022/04/12 15:54:52;;;;;;;2.40;2.20;;;18.90;75.70;;;;;;10421186;28;20202;-84
2022/04/12 15:59:55;;;;;;;2.50;2.30;;;19.00;73.50;;;;;;10419594;28;20703;-83
2022/04/12 16:04:58;;;;;;;3.27;2.97;;;19.10;76.00;;;;;;10424591;28;20256;-82
2022/04/12 16:10:00;;;;;;;2.50;2.40;;;19.30;71.90;;;;;;10382905;28;20229;-82
2022/04/12 16:15:04;;;;;;;4.57;3.13;;;19.50;71.50;;;;;;10419708;28;20214;-82
2022/04/12 16:20:07;;;;;;;3.50;2.33;;;19.50;76.00;;;;;;10403396;28;20309;-82
2022/04/12 16:25:10;;;;;;;3.73;2.80;;;19.60;69.50;;;;;;10418733;28;20225;-83
2022/04/12 16:30:14;;;;;;;3.33;2.70;;;19.70;70.00;;;;;;10422445;28;20225;-83
2022/04/12 16:35:17;;;;;;;3.97;3.67;;;19.80;70.60;;;;;;10420373;28;20206;-83
2022/04/12 16:40:19;;;;;;;3.57;3.27;;;19.90;71.10;;;;;;10421524;28;20611;-82
2022/04/12 16:45:23;;;;;;;3.40;3.20;;;20.00;71.40;;;;;;10385172;28;20292;-83
2022/04/12 16:50:25;;;;;;;3.90;3.60;;;19.90;74.40;;;;;;10401918;28;20271;-82
2022/04/12 16:55:28;;;;;;;3.90;3.50;;;19.80;72.60;;;;;;10401542;28;20578;-82
2022/04/12 17:00:32;;;;;;;5.20;4.70;;;19.80;72.80;;;;;;10400506;28;20309;-83
2022/04/12 17:05:34;;;;;;;4.37;4.00;;;19.70;73.30;;;;;;10386309;28;20218;-83
2022/04/12 17:10:36;;;;;;;5.83;3.97;;;19.70;73.10;;;;;;10418441;28;20225;-81
2022/04/12 17:15:40;;;;;;;5.20;4.20;;;19.70;74.10;;;;;;10391735;28;20316;-81
2022/04/12 17:20:45;;;;;;;5.10;4.60;;;19.80;74.10;;;;;;10382332;28;20221;-81
2022/04/12 17:25:47;;;;;;;5.53;4.23;;;19.70;74.30;;;;;;10401941;28;20309;-81
2022/04/12 17:30:50;;;;;;;4.67;4.27;;;19.70;75.80;;;;;;10397005;28;20724;-81
2022/04/12 17:35:52;;;;;;;10.10;5.50;;;19.60;75.80;;;;;;10419074;28;20314;-81
2022/04/12 17:40:55;;;;;;;5.07;4.67;;;19.60;75.90;;;;;;10414226;28;20198;-81
2022/04/12 17:45:58;;;;;;;7.90;5.37;;;19.50;76.90;;;;;;10392512;28;20704;-83
2022/04/12 17:51:00;;;;;;;6.93;6.23;;;19.40;77.50;;;;;;10377413;28;20229;-81
2022/04/12 17:56:02;;;;;;;6.07;5.10;;;19.30;77.30;;;;;;10404795;28;20234;-82
2022/04/12 18:01:08;;;;;;;5.87;5.23;;;19.20;78.00;;;;;;10416700;28;20202;-84
2022/04/12 18:06:14;;;;;;;6.03;5.27;;;19.10;78.20;;;;;;10414983;28;20332;-83
2022/04/12 18:11:16;;;;;;;8.70;5.40;;;19.00;78.90;;;;;;10384707;28;20412;-82
2022/04/12 18:16:19;;;;;;;4.73;4.20;;;18.80;79.70;;;;;;10400513;28;20224;-82
2022/04/12 18:21:22;;;;;;;5.47;4.40;;;18.70;81.50;;;;;;10401755;28;20194;-82
2022/04/12 18:26:24;;;;;;;5.67;4.53;;;18.50;82.20;;;;;;10399894;28;20214;-79
2022/04/12 18:31:27;;;;;;;6.20;4.63;;;18.40;82.00;;;;;;10400455;28;20686;-80
2022/04/12 18:36:31;;;;;;;4.50;4.13;;;18.30;82.70;;;;;;10403678;28;20222;-81
2022/04/12 18:41:33;;;;;;;5.03;4.10;;;18.10;83.90;;;;;;10401502;28;20233;-81
2022/04/12 18:46:36;;;;;;;5.17;4.70;;;18.00;84.40;;;;;;10371415;28;20276;-80
2022/04/12 18:51:39;;;;;;;9.30;5.10;;;17.80;85.30;;;;;;10408287;28;20217;-81
2022/04/12 18:56:41;;;;;;;9.97;5.20;;;17.70;86.70;;;;;;10405923;28;20261;-80
2022/04/12 19:01:44;;;;;;;5.03;4.10;;;17.50;87.10;;;;;;10386656;28;20197;-78
2022/04/12 19:06:47;;;;;;;5.20;4.70;;;17.30;88.10;;;;;;10381953;28;20829;-78
2022/04/12 19:11:49;;;;;;;5.77;4.60;;;17.20;88.60;;;;;;10400185;28;20653;-77
2022/04/12 19:16:53;;;;;;;7.97;5.27;;;17.10;89.20;;;;;;10390548;28;20219;-78
2022/04/12 19:21:55;;;;;;;5.73;4.80;;;16.90;90.00;;;;;;10401982;28;20256;-79
2022/04/12 19:26:58;;;;;;;5.50;5.00;;;16.80;90.30;;;;;;10409014;28;20600;-81
2022/04/12 19:32:01;;;;;;;6.20;5.00;;;16.70;90.60;;;;;;10395055;28;20760;-83
2022/04/12 19:37:04;;;;;;;5.80;5.17;;;16.70;91.30;;;;;;10420723;28;20244;-83
2022/04/12 19:42:07;;;;;;;6.17;5.57;;;16.50;91.70;;;;;;10391735;28;20200;-83
2022/04/12 19:47:14;;;;;;;5.00;4.60;;;16.50;92.40;;;;;;10375169;28;20279;-81
2022/04/12 19:52:19;;;;;;;6.73;6.10;;;16.30;93.20;;;;;;10362360;28;20214;-81
2022/04/12 19:57:21;;;;;;;4.90;4.50;;;16.20;92.60;;;;;;10387340;28;20238;-80
2022/04/12 20:02:27;;;;;;;6.90;4.90;;;16.10;93.10;;;;;;10378883;28;20265;-83
2022/04/12 20:07:29;;;;;;;7.03;5.30;;;16.00;93.00;;;;;;10396460;28;20226;-83
2022/04/12 20:12:35;;;;;;;5.40;4.90;;;15.90;93.30;;;;;;10414359;28;20689;-83
2022/04/12 20:17:38;;;;;;;5.60;5.07;;;15.80;94.30;;;;;;10414818;28;20291;-83
2022/04/12 20:22:45;;;;;;;4.70;4.30;;;15.70;93.80;;;;;;10389320;28;20256;-83
2022/04/12 20:27:48;;;;;;;5.60;4.23;;;15.70;94.10;;;;;;10424452;28;20211;-83
2022/04/12 20:32:55;;;;;;;5.13;4.67;;;15.60;93.70;;;;;;10392841;28;20218;-83
2022/04/12 20:38:03;;;;;;;6.97;4.67;;;15.50;94.30;;;;;;10387747;28;20229;-84
2022/04/12 20:43:14;;;;;;;5.23;4.70;;;15.40;94.70;;;;;;10409952;28;20209;-83
2022/04/12 20:48:18;;;;;;;5.30;4.90;;;15.30;94.70;;;;;;10396268;28;20221;-84
2022/04/12 20:53:26;;;;;;;4.97;4.47;;;15.20;94.90;;;;;;10373729;28;20210;-83
2022/04/12 20:58:37;;;;;;;4.30;3.80;;;15.20;94.90;;;;;;10381851;28;20221;-84
2022/04/12 21:03:41;;;;;;;4.40;4.00;;;15.10;94.30;;;;;;10382859;28;20209;-83
2022/04/12 21:08:44;;;;;;;4.93;3.97;;;15.00;95.20;;;;;;10401714;28;20221;-83
2022/04/12 21:13:46;;;;;;;7.37;4.30;;;14.90;94.80;;;;;;10411243;28;20210;-84
2022/04/12 21:18:58;;;;;;;4.63;4.20;;;14.90;94.50;;;;;;10404408;28;20265;-83
2022/04/12 21:24:02;;;;;;;3.57;3.37;;;14.80;94.70;;;;;;10402697;28;20230;-84
2022/04/12 21:29:08;;;;;;;4.60;4.03;;;14.70;95.30;;;;;;10422439;28;20218;-84
2022/04/12 21:34:12;;;;;;;7.00;3.20;;;14.60;94.80;;;;;;10381153;28;20202;-83
2022/04/12 21:39:15;;;;;;;5.67;3.80;;;14.50;95.10;;;;;;10417019;28;20210;-83
2022/04/12 21:44:34;;;;;;;4.07;3.67;;;14.50;95.50;;;;;;10409732;28;20336;-84
2022/04/12 21:49:37;;;;;;;4.10;3.83;;;14.50;95.80;;;;;;10401793;28;20221;-82
2022/04/12 21:54:40;;;;;;;5.10;4.20;;;14.40;95.70;;;;;;10380667;28;20229;-83
2022/04/12 21:59:44;;;;;;;4.00;3.70;;;14.40;96.00;;;;;;10412446;28;20564;-82
2022/04/12 22:04:54;;;;;;;3.50;3.30;;;14.30;96.20;;;;;;10388936;28;20198;-82
2022/04/12 22:09:56;;;;;;;3.93;3.60;;;14.30;96.30;;;;;;10375757;28;20600;-82
2022/04/12 22:14:58;;;;;;;4.03;3.13;;;14.30;96.30;;;;;;10413808;28;20206;-82
2022/04/12 22:20:02;;;;;;;6.27;3.50;;;14.20;96.50;;;;;;10396252;28;20303;-82
2022/04/12 22:25:05;;;;;;;4.30;3.97;;;14.20;96.50;;;;;;10392208;28;20728;-81
2022/04/12 22:30:11;;;;;;;4.83;4.10;;;14.10;96.40;;;;;;10407615;28;20724;-82
2022/04/12 22:35:18;;;;;;;4.30;3.67;;;14.10;96.20;;;;;;10377628;28;20202;-82
2022/04/12 22:40:24;;;;;;;3.87;3.57;;;14.00;96.80;;;;;;10405015;28;20198;-81
2022/04/12 22:45:27;;;;;;;3.60;3.40;;;14.00;96.60;;;;;;10392009;28;20206;-82
2022/04/12 22:50:31;;;;;;;4.20;3.80;;;14.00;97.10;;;;;;10396052;28;20218;-82
2022/04/12 22:55:34;;;;;;;4.20;3.83;;;14.00;96.70;;;;;;10397123;28;20304;-81
2022/04/12 23:00:36;;;;;;;4.50;3.73;;;13.90;96.50;;;;;;10390049;28;20201;-82
2022/04/12 23:05:41;;;;;;;3.90;3.67;;;13.90;97.60;;;;;;10397923;28;20218;-81
2022/04/12 23:10:46;;;;;;;4.20;3.80;;;13.90;97.70;;;;;;10381787;28;20202;-82
2022/04/12 23:15:48;;;;;;;3.87;3.63;;;13.90;97.40;;;;;;10406333;28;20213;-82
2022/04/12 23:20:53;;;;;;;4.10;3.70;;;13.90;98.00;;;;;;10414711;28;20194;-82
2022/04/12 23:25:57;;;;;;;4.60;4.20;;;13.90;97.50;;;;;;10396725;28;20229;-82
2022/04/12 23:31:00;;;;;;;3.70;3.40;;;13.90;98.30;;;;;;10382876;28;20266;-82
2022/04/12 23:36:05;;;;;;;4.93;4.30;;;13.90;98.20;;;;;;10385262;28;20214;-84
2022/04/12 23:41:07;;;;;;;4.40;4.10;;;13.90;98.30;;;;;;10398835;28;20263;-84
2022/04/12 23:46:12;;;;;;;4.27;3.90;;;13.90;98.30;;;;;;10417906;28;20206;-83
2022/04/12 23:51:15;;;;;;;4.97;4.60;;;13.90;98.40;;;;;;10411423;28;20225;-83
2022/04/12 23:56:18;;;;;;;7.73;3.70;;;13.90;98.10;;;;;;10407225;28;20638;-84
